sensor_id;sensor_type;location;lat;lon;timestamp;P1;durP1;ratioP1;P2;durP2;ratioP2
13475;SDS011;6810;63.824;20.288;2023-03-31T00:02:41;0.40;;;0.40;;
13475;SDS011;6810;63.824;20.288;2023-03-31T00:05:28;2.30;;;0.43;;
13475;SDS011;6810;63.824;20.288;2023-03-31T00:08:15;3.30;;;0.40;;
13475;SDS011;6810;63.824;20.288;2023-03-31T00:11:03;0.30;;;0.30;;
13475;SDS011;6810;63.824;20.288;2023-03-31T00:13:51;0.23;;;0.20;;
13475;SDS011;6810;63.824;20.288;2023-03-31T00:16:38;0.30;;;0.13;;
13475;SDS011;6810;63.824;20.288;2023-03-31T00:19:25;4.73;;;0.37;;
13475;SDS011;6810;63.824;20.288;2023-03-31T00:22:12;0.40;;;0.20;;
13475;SDS011;6810;63.824;20.288;2023-03-31T00:24:59;2.33;;;0.80;;
13475;SDS011;6810;63.824;20.288;2023-03-31T00:27:46;0.20;;;0.20;;
13475;SDS011;6810;63.824;20.288;2023-03-31T00:30:33;2.43;;;0.50;;
13475;SDS011;6810;63.824;20.288;2023-03-31T00:33:23;0.40;;;0.33;;
13475;SDS011;6810;63.824;20.288;2023-03-31T00:36:10;0.27;;;0.27;;
13475;SDS011;6810;63.824;20.288;2023-03-31T00:38:59;1.03;;;0.40;;
13475;SDS011;6810;63.824;20.288;2023-03-31T00:41:53;0.57;;;0.30;;
13475;SDS011;6810;63.824;20.288;2023-03-31T00:48:02;0.20;;;0.20;;
13475;SDS011;6810;63.824;20.288;2023-03-31T00:50:54;0.10;;;0.10;;
13475;SDS011;6810;63.824;20.288;2023-03-31T00:53:43;2.40;;;0.30;;
13475;SDS011;6810;63.824;20.288;2023-03-31T00:56:35;1.37;;;0.40;;
13475;SDS011;6810;63.824;20.288;2023-03-31T00:59:26;0.63;;;0.43;;
13475;SDS011;6810;63.824;20.288;2023-03-31T01:02:16;0.10;;;0.10;;
13475;SDS011;6810;63.824;20.288;2023-03-31T01:05:04;3.63;;;0.17;;
13475;SDS011;6810;63.824;20.288;2023-03-31T01:07:51;0.40;;;0.10;;
13475;SDS011;6810;63.824;20.288;2023-03-31T01:10:40;0.00;;;0.00;;
13475;SDS011;6810;63.824;20.288;2023-03-31T01:13:33;0.10;;;0.10;;
13475;SDS011;6810;63.824;20.288;2023-03-31T01:16:22;0.17;;;0.10;;
13475;SDS011;6810;63.824;20.288;2023-03-31T01:19:12;2.27;;;0.47;;
13475;SDS011;6810;63.824;20.288;2023-03-31T01:22:16;0.27;;;0.20;;
13475;SDS011;6810;63.824;20.288;2023-03-31T01:46:49;0.00;;;0.00;;
13475;SDS011;6810;63.824;20.288;2023-03-31T01:55:46;0.90;;;0.07;;
13475;SDS011;6810;63.824;20.288;2023-03-31T01:58:36;1.20;;;0.23;;
13475;SDS011;6810;63.824;20.288;2023-03-31T02:02:28;0.10;;;0.10;;
13475;SDS011;6810;63.824;20.288;2023-03-31T02:04:59;0.07;;;0.07;;
13475;SDS011;6810;63.824;20.288;2023-03-31T02:08:03;0.10;;;0.10;;
13475;SDS011;6810;63.824;20.288;2023-03-31T02:10:53;0.03;;;0.03;;
13475;SDS011;6810;63.824;20.288;2023-03-31T02:13:42;0.60;;;0.53;;
13475;SDS011;6810;63.824;20.288;2023-03-31T02:16:33;0.00;;;0.00;;
13475;SDS011;6810;63.824;20.288;2023-03-31T02:19:25;1.00;;;0.10;;
13475;SDS011;6810;63.824;20.288;2023-03-31T02:22:16;1.40;;;0.20;;
13475;SDS011;6810;63.824;20.288;2023-03-31T02:25:07;1.17;;;0.20;;
13475;SDS011;6810;63.824;20.288;2023-03-31T02:28:02;0.00;;;0.00;;
13475;SDS011;6810;63.824;20.288;2023-03-31T02:34:05;0.50;;;0.10;;
13475;SDS011;6810;63.824;20.288;2023-03-31T02:36:53;3.40;;;0.10;;
13475;SDS011;6810;63.824;20.288;2023-03-31T02:39:43;0.50;;;0.30;;
13475;SDS011;6810;63.824;20.288;2023-03-31T02:42:35;0.20;;;0.20;;
13475;SDS011;6810;63.824;20.288;2023-03-31T02:45:46;0.93;;;0.20;;
13475;SDS011;6810;63.824;20.288;2023-03-31T02:48:37;0.20;;;0.20;;
13475;SDS011;6810;63.824;20.288;2023-03-31T02:57:28;0.00;;;0.00;;
13475;SDS011;6810;63.824;20.288;2023-03-31T03:07:24;0.00;;;0.00;;
13475;SDS011;6810;63.824;20.288;2023-03-31T03:14:01;0.23;;;0.23;;
13475;SDS011;6810;63.824;20.288;2023-03-31T03:17:09;1.87;;;0.30;;
13475;SDS011;6810;63.824;20.288;2023-03-31T03:20:03;0.00;;;0.00;;
13475;SDS011;6810;63.824;20.288;2023-03-31T03:22:54;0.50;;;0.10;;
13475;SDS011;6810;63.824;20.288;2023-03-31T03:25:41;0.30;;;0.10;;
13475;SDS011;6810;63.824;20.288;2023-03-31T03:28:28;1.33;;;0.20;;
13475;SDS011;6810;63.824;20.288;2023-03-31T03:31:15;0.00;;;0.00;;
13475;SDS011;6810;63.824;20.288;2023-03-31T03:34:02;1.00;;;0.10;;
13475;SDS011;6810;63.824;20.288;2023-03-31T03:36:50;0.10;;;0.10;;
13475;SDS011;6810;63.824;20.288;2023-03-31T03:39:37;0.00;;;0.00;;
13475;SDS011;6810;63.824;20.288;2023-03-31T03:42:24;0.10;;;0.10;;
13475;SDS011;6810;63.824;20.288;2023-03-31T03:45:11;0.33;;;0.10;;
13475;SDS011;6810;63.824;20.288;2023-03-31T03:47:58;0.10;;;0.10;;
13475;SDS011;6810;63.824;20.288;2023-03-31T03:50:45;0.00;;;0.00;;
13475;SDS011;6810;63.824;20.288;2023-03-31T03:53:32;0.10;;;0.10;;
13475;SDS011;6810;63.824;20.288;2023-03-31T03:56:19;0.10;;;0.10;;
13475;SDS011;6810;63.824;20.288;2023-03-31T03:59:06;1.50;;;0.10;;
13475;SDS011;6810;63.824;20.288;2023-03-31T04:01:53;0.00;;;0.00;;
13475;SDS011;6810;63.824;20.288;2023-03-31T04:04:40;0.07;;;0.03;;
13475;SDS011;6810;63.824;20.288;2023-03-31T04:07:27;1.50;;;0.10;;
13475;SDS011;6810;63.824;20.288;2023-03-31T04:10:14;0.10;;;0.10;;
13475;SDS011;6810;63.824;20.288;2023-03-31T04:13:01;0.20;;;0.10;;
13475;SDS011;6810;63.824;20.288;2023-03-31T04:15:48;0.20;;;0.10;;
13475;SDS011;6810;63.824;20.288;2023-03-31T04:18:35;0.00;;;0.00;;
13475;SDS011;6810;63.824;20.288;2023-03-31T04:21:23;0.57;;;0.23;;
13475;SDS011;6810;63.824;20.288;2023-03-31T04:24:11;0.07;;;0.03;;
13475;SDS011;6810;63.824;20.288;2023-03-31T04:26:59;1.17;;;0.20;;
13475;SDS011;6810;63.824;20.288;2023-03-31T04:29:46;0.00;;;0.00;;
13475;SDS011;6810;63.824;20.288;2023-03-31T04:32:33;0.53;;;0.20;;
13475;SDS011;6810;63.824;20.288;2023-03-31T04:35:21;0.73;;;0.17;;
13475;SDS011;6810;63.824;20.288;2023-03-31T04:38:09;1.27;;;0.20;;
13475;SDS011;6810;63.824;20.288;2023-03-31T04:40:56;2.43;;;0.37;;
13475;SDS011;6810;63.824;20.288;2023-03-31T04:43:43;0.23;;;0.20;;
13475;SDS011;6810;63.824;20.288;2023-03-31T04:46:31;0.20;;;0.20;;
13475;SDS011;6810;63.824;20.288;2023-03-31T04:49:18;0.40;;;0.40;;
13475;SDS011;6810;63.824;20.288;2023-03-31T04:52:05;0.70;;;0.13;;
13475;SDS011;6810;63.824;20.288;2023-03-31T04:54:52;1.97;;;0.40;;
13475;SDS011;6810;63.824;20.288;2023-03-31T04:57:39;1.07;;;0.20;;
13475;SDS011;6810;63.824;20.288;2023-03-31T05:00:26;0.10;;;0.10;;
13475;SDS011;6810;63.824;20.288;2023-03-31T05:03:13;0.33;;;0.20;;
13475;SDS011;6810;63.824;20.288;2023-03-31T05:06:01;0.30;;;0.30;;
13475;SDS011;6810;63.824;20.288;2023-03-31T05:08:48;0.10;;;0.07;;
13475;SDS011;6810;63.824;20.288;2023-03-31T05:11:34;0.67;;;0.10;;
13475;SDS011;6810;63.824;20.288;2023-03-31T05:14:22;0.10;;;0.10;;
13475;SDS011;6810;63.824;20.288;2023-03-31T05:17:08;0.40;;;0.30;;
13475;SDS011;6810;63.824;20.288;2023-03-31T05:19:56;2.83;;;0.30;;
13475;SDS011;6810;63.824;20.288;2023-03-31T05:22:42;0.37;;;0.10;;
13475;SDS011;6810;63.824;20.288;2023-03-31T05:25:29;0.87;;;0.10;;
13475;SDS011;6810;63.824;20.288;2023-03-31T05:28:16;3.80;;;0.20;;
13475;SDS011;6810;63.824;20.288;2023-03-31T05:31:03;0.37;;;0.20;;
13475;SDS011;6810;63.824;20.288;2023-03-31T05:33:51;0.53;;;0.17;;
13475;SDS011;6810;63.824;20.288;2023-03-31T05:36:38;0.30;;;0.23;;
13475;SDS011;6810;63.824;20.288;2023-03-31T05:39:25;0.10;;;0.10;;
13475;SDS011;6810;63.824;20.288;2023-03-31T05:42:12;2.60;;;0.30;;
13475;SDS011;6810;63.824;20.288;2023-03-31T05:44:59;0.30;;;0.30;;
13475;SDS011;6810;63.824;20.288;2023-03-31T05:47:46;0.67;;;0.30;;
13475;SDS011;6810;63.824;20.288;2023-03-31T05:50:33;0.93;;;0.43;;
13475;SDS011;6810;63.824;20.288;2023-03-31T05:53:20;2.00;;;0.30;;
13475;SDS011;6810;63.824;20.288;2023-03-31T05:56:07;1.70;;;0.77;;
13475;SDS011;6810;63.824;20.288;2023-03-31T05:58:54;1.00;;;0.37;;
13475;SDS011;6810;63.824;20.288;2023-03-31T06:01:41;1.30;;;0.37;;
13475;SDS011;6810;63.824;20.288;2023-03-31T06:04:28;2.20;;;0.40;;
13475;SDS011;6810;63.824;20.288;2023-03-31T06:07:15;1.53;;;0.40;;
13475;SDS011;6810;63.824;20.288;2023-03-31T06:10:02;0.47;;;0.17;;
13475;SDS011;6810;63.824;20.288;2023-03-31T06:12:49;2.30;;;0.40;;
13475;SDS011;6810;63.824;20.288;2023-03-31T06:15:36;4.07;;;0.90;;
13475;SDS011;6810;63.824;20.288;2023-03-31T06:18:23;1.37;;;0.37;;
13475;SDS011;6810;63.824;20.288;2023-03-31T06:21:14;0.40;;;0.20;;
13475;SDS011;6810;63.824;20.288;2023-03-31T06:24:02;0.43;;;0.20;;
13475;SDS011;6810;63.824;20.288;2023-03-31T06:26:49;2.07;;;0.40;;
13475;SDS011;6810;63.824;20.288;2023-03-31T06:29:36;0.83;;;0.30;;
13475;SDS011;6810;63.824;20.288;2023-03-31T06:32:23;1.70;;;0.37;;
13475;SDS011;6810;63.824;20.288;2023-03-31T06:35:10;0.10;;;0.10;;
13475;SDS011;6810;63.824;20.288;2023-03-31T06:37:57;0.63;;;0.40;;
13475;SDS011;6810;63.824;20.288;2023-03-31T06:40:44;2.90;;;0.47;;
13475;SDS011;6810;63.824;20.288;2023-03-31T06:43:31;0.50;;;0.10;;
13475;SDS011;6810;63.824;20.288;2023-03-31T06:46:19;1.43;;;1.13;;
13475;SDS011;6810;63.824;20.288;2023-03-31T06:49:06;1.33;;;0.30;;
13475;SDS011;6810;63.824;20.288;2023-03-31T06:51:53;2.37;;;0.40;;
13475;SDS011;6810;63.824;20.288;2023-03-31T06:54:40;0.50;;;0.37;;
13475;SDS011;6810;63.824;20.288;2023-03-31T06:57:27;1.03;;;0.37;;
13475;SDS011;6810;63.824;20.288;2023-03-31T07:00:15;2.20;;;0.50;;
13475;SDS011;6810;63.824;20.288;2023-03-31T07:03:03;0.50;;;0.20;;
13475;SDS011;6810;63.824;20.288;2023-03-31T07:05:51;3.27;;;0.50;;
13475;SDS011;6810;63.824;20.288;2023-03-31T07:08:38;0.33;;;0.23;;
13475;SDS011;6810;63.824;20.288;2023-03-31T07:11:25;2.77;;;0.33;;
13475;SDS011;6810;63.824;20.288;2023-03-31T07:14:12;1.63;;;0.40;;
13475;SDS011;6810;63.824;20.288;2023-03-31T07:16:59;3.10;;;0.70;;
13475;SDS011;6810;63.824;20.288;2023-03-31T07:19:46;0.80;;;0.30;;
13475;SDS011;6810;63.824;20.288;2023-03-31T07:22:33;1.70;;;0.50;;
13475;SDS011;6810;63.824;20.288;2023-03-31T07:25:20;2.17;;;0.17;;
13475;SDS011;6810;63.824;20.288;2023-03-31T07:28:07;2.93;;;0.40;;
13475;SDS011;6810;63.824;20.288;2023-03-31T07:30:54;1.40;;;0.40;;
13475;SDS011;6810;63.824;20.288;2023-03-31T07:33:41;1.40;;;0.40;;
13475;SDS011;6810;63.824;20.288;2023-03-31T07:36:28;2.83;;;0.30;;
13475;SDS011;6810;63.824;20.288;2023-03-31T07:39:15;1.03;;;0.30;;
13475;SDS011;6810;63.824;20.288;2023-03-31T07:42:02;2.80;;;0.20;;
13475;SDS011;6810;63.824;20.288;2023-03-31T07:44:49;2.33;;;0.20;;
13475;SDS011;6810;63.824;20.288;2023-03-31T07:47:36;1.13;;;0.40;;
13475;SDS011;6810;63.824;20.288;2023-03-31T07:50:23;3.70;;;0.50;;
13475;SDS011;6810;63.824;20.288;2023-03-31T07:53:18;0.20;;;0.20;;
13475;SDS011;6810;63.824;20.288;2023-03-31T07:56:05;0.20;;;0.10;;
13475;SDS011;6810;63.824;20.288;2023-03-31T07:58:52;1.10;;;0.40;;
13475;SDS011;6810;63.824;20.288;2023-03-31T08:01:39;0.57;;;0.20;;
13475;SDS011;6810;63.824;20.288;2023-03-31T08:04:27;2.60;;;0.40;;
13475;SDS011;6810;63.824;20.288;2023-03-31T08:07:14;1.63;;;0.30;;
13475;SDS011;6810;63.824;20.288;2023-03-31T08:10:03;0.50;;;0.30;;
13475;SDS011;6810;63.824;20.288;2023-03-31T08:12:53;1.00;;;0.30;;
13475;SDS011;6810;63.824;20.288;2023-03-31T08:15:40;0.70;;;0.40;;
13475;SDS011;6810;63.824;20.288;2023-03-31T08:18:27;0.30;;;0.20;;
13475;SDS011;6810;63.824;20.288;2023-03-31T08:21:14;0.20;;;0.10;;
13475;SDS011;6810;63.824;20.288;2023-03-31T08:24:01;1.07;;;0.27;;
13475;SDS011;6810;63.824;20.288;2023-03-31T08:26:48;2.43;;;0.57;;
13475;SDS011;6810;63.824;20.288;2023-03-31T08:29:38;0.40;;;0.10;;
13475;SDS011;6810;63.824;20.288;2023-03-31T08:32:25;1.10;;;0.20;;
13475;SDS011;6810;63.824;20.288;2023-03-31T08:35:11;0.27;;;0.20;;
13475;SDS011;6810;63.824;20.288;2023-03-31T08:37:58;1.00;;;0.20;;
13475;SDS011;6810;63.824;20.288;2023-03-31T08:40:45;1.83;;;0.37;;
13475;SDS011;6810;63.824;20.288;2023-03-31T08:43:33;0.97;;;0.20;;
13475;SDS011;6810;63.824;20.288;2023-03-31T08:46:27;0.87;;;0.30;;
13475;SDS011;6810;63.824;20.288;2023-03-31T08:49:17;1.13;;;0.33;;
13475;SDS011;6810;63.824;20.288;2023-03-31T08:52:06;0.20;;;0.20;;
13475;SDS011;6810;63.824;20.288;2023-03-31T08:55:04;0.80;;;0.40;;
13475;SDS011;6810;63.824;20.288;2023-03-31T09:01:01;1.07;;;0.30;;
13475;SDS011;6810;63.824;20.288;2023-03-31T09:04:06;0.83;;;0.27;;
13475;SDS011;6810;63.824;20.288;2023-03-31T09:10:45;1.07;;;0.20;;
13475;SDS011;6810;63.824;20.288;2023-03-31T09:16:40;0.43;;;0.20;;
13475;SDS011;6810;63.824;20.288;2023-03-31T09:19:35;1.70;;;0.27;;
13475;SDS011;6810;63.824;20.288;2023-03-31T09:22:50;1.10;;;0.27;;
13475;SDS011;6810;63.824;20.288;2023-03-31T09:25:42;1.23;;;0.20;;
13475;SDS011;6810;63.824;20.288;2023-03-31T09:28:35;1.40;;;0.43;;
13475;SDS011;6810;63.824;20.288;2023-03-31T09:31:24;2.13;;;0.33;;
13475;SDS011;6810;63.824;20.288;2023-03-31T09:34:14;1.70;;;0.30;;
13475;SDS011;6810;63.824;20.288;2023-03-31T09:37:04;0.47;;;0.47;;
13475;SDS011;6810;63.824;20.288;2023-03-31T09:39:51;1.17;;;0.20;;
13475;SDS011;6810;63.824;20.288;2023-03-31T09:42:38;1.13;;;0.20;;
13475;SDS011;6810;63.824;20.288;2023-03-31T09:45:25;0.13;;;0.10;;
13475;SDS011;6810;63.824;20.288;2023-03-31T09:48:33;1.30;;;0.40;;
13475;SDS011;6810;63.824;20.288;2023-03-31T09:51:23;2.23;;;0.40;;
13475;SDS011;6810;63.824;20.288;2023-03-31T09:54:24;0.63;;;0.23;;
13475;SDS011;6810;63.824;20.288;2023-03-31T09:57:27;1.27;;;0.20;;
13475;SDS011;6810;63.824;20.288;2023-03-31T10:00:17;0.63;;;0.30;;
13475;SDS011;6810;63.824;20.288;2023-03-31T10:03:06;1.00;;;0.30;;
13475;SDS011;6810;63.824;20.288;2023-03-31T10:05:54;1.00;;;0.10;;
13475;SDS011;6810;63.824;20.288;2023-03-31T10:08:46;1.57;;;0.33;;
13475;SDS011;6810;63.824;20.288;2023-03-31T10:11:51;1.20;;;0.30;;
13475;SDS011;6810;63.824;20.288;2023-03-31T10:14:44;1.30;;;0.23;;
13475;SDS011;6810;63.824;20.288;2023-03-31T10:17:33;1.40;;;0.30;;
13475;SDS011;6810;63.824;20.288;2023-03-31T10:20:29;0.27;;;0.10;;
13475;SDS011;6810;63.824;20.288;2023-03-31T10:23:26;0.97;;;0.20;;
13475;SDS011;6810;63.824;20.288;2023-03-31T10:26:16;0.60;;;0.20;;
13475;SDS011;6810;63.824;20.288;2023-03-31T10:29:10;0.60;;;0.20;;
13475;SDS011;6810;63.824;20.288;2023-03-31T10:32:21;0.93;;;0.20;;
13475;SDS011;6810;63.824;20.288;2023-03-31T10:38:15;1.33;;;0.27;;
13475;SDS011;6810;63.824;20.288;2023-03-31T10:41:09;0.67;;;0.20;;
13475;SDS011;6810;63.824;20.288;2023-03-31T10:44:00;1.50;;;0.43;;
13475;SDS011;6810;63.824;20.288;2023-03-31T10:46:51;1.03;;;0.40;;
13475;SDS011;6810;63.824;20.288;2023-03-31T10:49:38;2.07;;;0.27;;
13475;SDS011;6810;63.824;20.288;2023-03-31T10:52:27;0.67;;;0.20;;
13475;SDS011;6810;63.824;20.288;2023-03-31T10:55:21;0.50;;;0.30;;
13475;SDS011;6810;63.824;20.288;2023-03-31T11:04:11;1.07;;;0.10;;
13475;SDS011;6810;63.824;20.288;2023-03-31T11:07:33;0.90;;;0.30;;
13475;SDS011;6810;63.824;20.288;2023-03-31T11:10:56;0.40;;;0.20;;
13475;SDS011;6810;63.824;20.288;2023-03-31T11:41:58;0.77;;;0.30;;
13475;SDS011;6810;63.824;20.288;2023-03-31T11:44:50;0.80;;;0.30;;
13475;SDS011;6810;63.824;20.288;2023-03-31T11:47:43;0.10;;;0.10;;
13475;SDS011;6810;63.824;20.288;2023-03-31T11:50:34;0.77;;;0.20;;
13475;SDS011;6810;63.824;20.288;2023-03-31T11:53:25;2.13;;;0.40;;
13475;SDS011;6810;63.824;20.288;2023-03-31T11:56:17;0.70;;;0.20;;
13475;SDS011;6810;63.824;20.288;2023-03-31T11:59:08;1.00;;;0.33;;
13475;SDS011;6810;63.824;20.288;2023-03-31T12:04:53;0.70;;;0.17;;
13475;SDS011;6810;63.824;20.288;2023-03-31T12:11:20;0.70;;;0.20;;
13475;SDS011;6810;63.824;20.288;2023-03-31T12:17:12;1.63;;;0.20;;
13475;SDS011;6810;63.824;20.288;2023-03-31T12:20:02;0.60;;;0.17;;
13475;SDS011;6810;63.824;20.288;2023-03-31T12:22:57;1.20;;;0.20;;
13475;SDS011;6810;63.824;20.288;2023-03-31T12:25:52;0.30;;;0.20;;
13475;SDS011;6810;63.824;20.288;2023-03-31T12:28:44;0.70;;;0.17;;
13475;SDS011;6810;63.824;20.288;2023-03-31T12:31:34;1.60;;;0.10;;
13475;SDS011;6810;63.824;20.288;2023-03-31T12:34:23;0.80;;;0.20;;
13475;SDS011;6810;63.824;20.288;2023-03-31T12:44:03;0.30;;;0.10;;
13475;SDS011;6810;63.824;20.288;2023-03-31T12:47:21;1.77;;;0.30;;
13475;SDS011;6810;63.824;20.288;2023-03-31T12:56:21;1.33;;;0.10;;
13475;SDS011;6810;63.824;20.288;2023-03-31T12:59:17;1.57;;;0.30;;
13475;SDS011;6810;63.824;20.288;2023-03-31T13:08:59;0.50;;;0.20;;
13475;SDS011;6810;63.824;20.288;2023-03-31T13:11:47;1.80;;;0.20;;
13475;SDS011;6810;63.824;20.288;2023-03-31T13:14:37;0.57;;;0.20;;
13475;SDS011;6810;63.824;20.288;2023-03-31T13:17:33;0.87;;;0.20;;
13475;SDS011;6810;63.824;20.288;2023-03-31T13:20:38;0.57;;;0.30;;
13475;SDS011;6810;63.824;20.288;2023-03-31T13:23:27;0.77;;;0.30;;
13475;SDS011;6810;63.824;20.288;2023-03-31T13:29:24;0.57;;;0.13;;
13475;SDS011;6810;63.824;20.288;2023-03-31T13:32:25;0.97;;;0.33;;
13475;SDS011;6810;63.824;20.288;2023-03-31T13:35:16;0.23;;;0.10;;
13475;SDS011;6810;63.824;20.288;2023-03-31T13:38:21;0.43;;;0.20;;
13475;SDS011;6810;63.824;20.288;2023-03-31T13:41:24;0.30;;;0.10;;
13475;SDS011;6810;63.824;20.288;2023-03-31T13:53:44;0.53;;;0.17;;
13475;SDS011;6810;63.824;20.288;2023-03-31T14:03:56;0.03;;;0.00;;
13475;SDS011;6810;63.824;20.288;2023-03-31T14:11:33;1.00;;;0.40;;
13475;SDS011;6810;63.824;20.288;2023-03-31T14:14:10;0.57;;;0.20;;
13475;SDS011;6810;63.824;20.288;2023-03-31T14:16:40;0.43;;;0.20;;
13475;SDS011;6810;63.824;20.288;2023-03-31T14:22:22;0.00;;;0.00;;
13475;SDS011;6810;63.824;20.288;2023-03-31T14:28:15;0.10;;;0.10;;
13475;SDS011;6810;63.824;20.288;2023-03-31T14:36:33;0.53;;;0.20;;
13475;SDS011;6810;63.824;20.288;2023-03-31T14:39:08;0.70;;;0.20;;
13475;SDS011;6810;63.824;20.288;2023-03-31T14:41:37;0.10;;;0.10;;
13475;SDS011;6810;63.824;20.288;2023-03-31T14:44:10;0.43;;;0.30;;
13475;SDS011;6810;63.824;20.288;2023-03-31T14:46:41;0.97;;;0.13;;
13475;SDS011;6810;63.824;20.288;2023-03-31T14:49:24;2.27;;;0.10;;
13475;SDS011;6810;63.824;20.288;2023-03-31T14:51:54;0.10;;;0.10;;
13475;SDS011;6810;63.824;20.288;2023-03-31T14:54:26;0.10;;;0.00;;
13475;SDS011;6810;63.824;20.288;2023-03-31T14:56:53;0.57;;;0.13;;
13475;SDS011;6810;63.824;20.288;2023-03-31T14:59:27;0.70;;;0.20;;
13475;SDS011;6810;63.824;20.288;2023-03-31T15:02:00;0.60;;;0.17;;
13475;SDS011;6810;63.824;20.288;2023-03-31T15:04:30;0.93;;;0.20;;
13475;SDS011;6810;63.824;20.288;2023-03-31T15:07:10;2.03;;;0.40;;
13475;SDS011;6810;63.824;20.288;2023-03-31T15:09:38;1.07;;;0.20;;
13475;SDS011;6810;63.824;20.288;2023-03-31T15:12:07;0.40;;;0.20;;
13475;SDS011;6810;63.824;20.288;2023-03-31T15:14:46;0.47;;;0.10;;
13475;SDS011;6810;63.824;20.288;2023-03-31T15:17:19;0.20;;;0.10;;
13475;SDS011;6810;63.824;20.288;2023-03-31T15:19:59;0.50;;;0.20;;
13475;SDS011;6810;63.824;20.288;2023-03-31T15:22:30;0.40;;;0.27;;
13475;SDS011;6810;63.824;20.288;2023-03-31T15:24:57;0.60;;;0.30;;
13475;SDS011;6810;63.824;20.288;2023-03-31T15:27:37;0.77;;;0.30;;
13475;SDS011;6810;63.824;20.288;2023-03-31T15:30:27;0.93;;;0.30;;
13475;SDS011;6810;63.824;20.288;2023-03-31T15:32:55;0.30;;;0.17;;
13475;SDS011;6810;63.824;20.288;2023-03-31T15:35:43;1.37;;;0.20;;
13475;SDS011;6810;63.824;20.288;2023-03-31T15:38:10;0.20;;;0.10;;
13475;SDS011;6810;63.824;20.288;2023-03-31T15:40:41;1.33;;;0.13;;
13475;SDS011;6810;63.824;20.288;2023-03-31T15:45:54;0.37;;;0.13;;
13475;SDS011;6810;63.824;20.288;2023-03-31T15:48:36;0.10;;;0.10;;
13475;SDS011;6810;63.824;20.288;2023-03-31T15:51:24;0.80;;;0.20;;
13475;SDS011;6810;63.824;20.288;2023-03-31T15:53:56;0.60;;;0.20;;
13475;SDS011;6810;63.824;20.288;2023-03-31T15:56:28;0.50;;;0.17;;
13475;SDS011;6810;63.824;20.288;2023-03-31T16:01:59;1.07;;;0.13;;
13475;SDS011;6810;63.824;20.288;2023-03-31T16:04:29;0.57;;;0.10;;
13475;SDS011;6810;63.824;20.288;2023-03-31T16:12:01;0.97;;;0.30;;
13475;SDS011;6810;63.824;20.288;2023-03-31T16:14:37;0.53;;;0.20;;
13475;SDS011;6810;63.824;20.288;2023-03-31T16:17:12;0.47;;;0.30;;
13475;SDS011;6810;63.824;20.288;2023-03-31T16:19:48;0.40;;;0.30;;
13475;SDS011;6810;63.824;20.288;2023-03-31T16:22:23;2.27;;;0.40;;
13475;SDS011;6810;63.824;20.288;2023-03-31T16:24:56;1.00;;;0.47;;
13475;SDS011;6810;63.824;20.288;2023-03-31T16:27:23;0.47;;;0.30;;
13475;SDS011;6810;63.824;20.288;2023-03-31T16:29:50;1.70;;;0.30;;
13475;SDS011;6810;63.824;20.288;2023-03-31T16:35:35;0.87;;;0.10;;
13475;SDS011;6810;63.824;20.288;2023-03-31T16:38:04;0.50;;;0.20;;
13475;SDS011;6810;63.824;20.288;2023-03-31T16:40:39;0.20;;;0.17;;
13475;SDS011;6810;63.824;20.288;2023-03-31T16:45:40;0.20;;;0.10;;
13475;SDS011;6810;63.824;20.288;2023-03-31T16:48:10;0.77;;;0.23;;
13475;SDS011;6810;63.824;20.288;2023-03-31T16:50:43;0.10;;;0.10;;
13475;SDS011;6810;63.824;20.288;2023-03-31T16:53:16;0.30;;;0.20;;
13475;SDS011;6810;63.824;20.288;2023-03-31T16:55:45;1.17;;;0.30;;
13475;SDS011;6810;63.824;20.288;2023-03-31T16:58:13;0.30;;;0.27;;
13475;SDS011;6810;63.824;20.288;2023-03-31T17:00:40;1.17;;;0.30;;
13475;SDS011;6810;63.824;20.288;2023-03-31T17:03:08;1.03;;;0.47;;
13475;SDS011;6810;63.824;20.288;2023-03-31T17:05:40;1.47;;;0.30;;
13475;SDS011;6810;63.824;20.288;2023-03-31T17:08:09;0.30;;;0.10;;
13475;SDS011;6810;63.824;20.288;2023-03-31T17:10:37;1.07;;;0.10;;
13475;SDS011;6810;63.824;20.288;2023-03-31T17:13:05;0.20;;;0.10;;
13475;SDS011;6810;63.824;20.288;2023-03-31T17:15:33;0.83;;;0.10;;
13475;SDS011;6810;63.824;20.288;2023-03-31T17:18:02;0.50;;;0.20;;
13475;SDS011;6810;63.824;20.288;2023-03-31T17:20:30;0.20;;;0.20;;
13475;SDS011;6810;63.824;20.288;2023-03-31T17:22:58;0.10;;;0.10;;
13475;SDS011;6810;63.824;20.288;2023-03-31T17:25:25;0.00;;;0.00;;
13475;SDS011;6810;63.824;20.288;2023-03-31T17:27:52;0.10;;;0.10;;
13475;SDS011;6810;63.824;20.288;2023-03-31T17:30:21;0.20;;;0.03;;
13475;SDS011;6810;63.824;20.288;2023-03-31T17:32:49;0.97;;;0.03;;
13475;SDS011;6810;63.824;20.288;2023-03-31T17:35:18;0.70;;;0.10;;
13475;SDS011;6810;63.824;20.288;2023-03-31T17:37:47;0.40;;;0.10;;
13475;SDS011;6810;63.824;20.288;2023-03-31T17:40:22;0.20;;;0.10;;
13475;SDS011;6810;63.824;20.288;2023-03-31T17:42:53;0.40;;;0.10;;
13475;SDS011;6810;63.824;20.288;2023-03-31T17:45:20;0.60;;;0.20;;
13475;SDS011;6810;63.824;20.288;2023-03-31T17:47:47;0.40;;;0.20;;
13475;SDS011;6810;63.824;20.288;2023-03-31T17:50:14;0.57;;;0.20;;
13475;SDS011;6810;63.824;20.288;2023-03-31T17:52:41;0.20;;;0.20;;
13475;SDS011;6810;63.824;20.288;2023-03-31T17:55:08;0.30;;;0.30;;
13475;SDS011;6810;63.824;20.288;2023-03-31T17:57:35;0.80;;;0.10;;
13475;SDS011;6810;63.824;20.288;2023-03-31T18:00:03;1.10;;;0.20;;
13475;SDS011;6810;63.824;20.288;2023-03-31T18:02:38;0.30;;;0.10;;
13475;SDS011;6810;63.824;20.288;2023-03-31T18:05:06;0.37;;;0.10;;
13475;SDS011;6810;63.824;20.288;2023-03-31T18:07:34;0.20;;;0.20;;
13475;SDS011;6810;63.824;20.288;2023-03-31T18:10:03;1.40;;;0.30;;
13475;SDS011;6810;63.824;20.288;2023-03-31T18:12:33;0.90;;;0.40;;
13475;SDS011;6810;63.824;20.288;2023-03-31T18:15:02;1.03;;;0.10;;
13475;SDS011;6810;63.824;20.288;2023-03-31T18:17:31;0.77;;;0.30;;
13475;SDS011;6810;63.824;20.288;2023-03-31T18:19:58;0.10;;;0.10;;
13475;SDS011;6810;63.824;20.288;2023-03-31T18:22:25;1.83;;;0.40;;
13475;SDS011;6810;63.824;20.288;2023-03-31T18:24:53;0.47;;;0.30;;
13475;SDS011;6810;63.824;20.288;2023-03-31T18:27:20;0.43;;;0.20;;
13475;SDS011;6810;63.824;20.288;2023-03-31T18:29:49;0.77;;;0.30;;
13475;SDS011;6810;63.824;20.288;2023-03-31T18:32:16;0.53;;;0.30;;
13475;SDS011;6810;63.824;20.288;2023-03-31T18:34:43;1.03;;;0.23;;
13475;SDS011;6810;63.824;20.288;2023-03-31T18:37:10;1.40;;;0.40;;
13475;SDS011;6810;63.824;20.288;2023-03-31T18:39:38;2.00;;;0.60;;
13475;SDS011;6810;63.824;20.288;2023-03-31T18:42:05;1.30;;;0.40;;
13475;SDS011;6810;63.824;20.288;2023-03-31T18:44:32;0.93;;;0.40;;
13475;SDS011;6810;63.824;20.288;2023-03-31T18:47:01;0.67;;;0.60;;
13475;SDS011;6810;63.824;20.288;2023-03-31T18:49:28;0.80;;;0.60;;
13475;SDS011;6810;63.824;20.288;2023-03-31T18:51:55;0.63;;;0.50;;
13475;SDS011;6810;63.824;20.288;2023-03-31T18:54:24;0.80;;;0.50;;
13475;SDS011;6810;63.824;20.288;2023-03-31T18:56:51;1.47;;;0.70;;
13475;SDS011;6810;63.824;20.288;2023-03-31T18:59:18;1.23;;;0.97;;
13475;SDS011;6810;63.824;20.288;2023-03-31T19:01:45;2.60;;;0.70;;
13475;SDS011;6810;63.824;20.288;2023-03-31T19:04:12;1.47;;;0.80;;
13475;SDS011;6810;63.824;20.288;2023-03-31T19:06:39;1.17;;;0.90;;
13475;SDS011;6810;63.824;20.288;2023-03-31T19:09:06;1.60;;;1.10;;
13475;SDS011;6810;63.824;20.288;2023-03-31T19:11:33;2.27;;;0.87;;
13475;SDS011;6810;63.824;20.288;2023-03-31T19:14:01;2.90;;;1.20;;
13475;SDS011;6810;63.824;20.288;2023-03-31T19:16:28;1.47;;;1.00;;
13475;SDS011;6810;63.824;20.288;2023-03-31T19:18:55;1.37;;;0.80;;
13475;SDS011;6810;63.824;20.288;2023-03-31T19:21:22;2.43;;;0.87;;
13475;SDS011;6810;63.824;20.288;2023-03-31T19:23:50;1.03;;;0.80;;
13475;SDS011;6810;63.824;20.288;2023-03-31T19:26:17;2.20;;;0.90;;
13475;SDS011;6810;63.824;20.288;2023-03-31T19:28:45;2.47;;;0.90;;
13475;SDS011;6810;63.824;20.288;2023-03-31T19:31:13;0.97;;;0.83;;